Time;durP1;ratioP1;P1;durP2;ratioP2;P2;SDS_P1;SDS_P2;PMS_P1;PMS_P2;Temp;Humidity;BMP_temperature;BMP_pressure;BME280_temperature;BME280_humidity;BME280_pressure;Samples;Min_cycle;Max_cycle;Signal;HPM_P1;HPM_P2
2021/03/14 00:00:27;;;;;;;3.57;1.30;;;6.20;1.00;;;;;;5011943;28;20176;-79
2021/03/14 00:02:53;;;;;;;8.43;1.83;;;6.20;1.00;;;;;;5014267;28;20209;-82
2021/03/14 00:05:20;;;;;;;3.57;1.63;;;6.20;1.00;;;;;;5013752;28;20194;-80
2021/03/14 00:07:45;;;;;;;5.97;1.90;;;6.10;1.00;;;;;;5014243;28;20265;-82
2021/03/14 00:10:12;;;;;;;6.20;1.77;;;6.10;1.00;;;;;;5022384;28;20209;-81
2021/03/14 00:12:39;;;;;;;4.60;1.70;;;6.10;1.00;;;;;;5033753;28;20173;-80
2021/03/14 00:15:06;;;;;;;7.23;1.87;;;6.10;1.00;;;;;;5034518;28;20181;-82
2021/03/14 00:17:32;;;;;;;6.37;2.20;;;6.00;1.00;;;;;;5034798;28;20178;-81
2021/03/14 00:19:58;;;;;;;6.03;1.60;;;6.00;1.00;;;;;;5033991;28;20184;-77
2021/03/14 00:22:23;;;;;;;5.27;1.73;;;5.90;1.00;;;;;;5033669;28;20170;-77
2021/03/14 00:24:49;;;;;;;5.53;1.77;;;5.90;1.00;;;;;;5033681;28;20223;-78
2021/03/14 00:27:15;;;;;;;5.67;2.13;;;5.90;1.00;;;;;;5033453;28;20174;-80
2021/03/14 00:29:40;;;;;;;5.40;2.13;;;5.90;1.00;;;;;;5033354;28;20193;-80
2021/03/14 00:32:06;;;;;;;7.27;1.93;;;5.90;1.00;;;;;;5033603;28;20597;-81
2021/03/14 00:34:32;;;;;;;5.50;1.90;;;5.90;1.00;;;;;;5033718;28;20221;-80
2021/03/14 00:36:57;;;;;;;3.47;1.67;;;5.90;1.00;;;;;;5033621;28;20188;-80
2021/03/14 00:39:23;;;;;;;6.80;1.93;;;5.90;1.00;;;;;;5032381;28;20197;-77
2021/03/14 00:41:49;;;;;;;5.70;1.80;;;5.90;1.00;;;;;;5033439;28;20606;-80
2021/03/14 00:44:15;;;;;;;6.43;1.70;;;5.80;1.00;;;;;;5033559;28;20182;-80
2021/03/14 00:46:41;;;;;;;4.07;1.83;;;5.80;1.00;;;;;;5033133;28;20174;-77
2021/03/14 00:49:07;;;;;;;5.60;2.13;;;5.80;1.00;;;;;;5033405;28;20272;-77
2021/03/14 00:51:32;;;;;;;7.50;2.10;;;5.80;1.00;;;;;;5033293;28;20196;-79
2021/03/14 00:53:58;;;;;;;6.63;2.17;;;5.80;1.00;;;;;;5033614;28;20252;-81
2021/03/14 00:56:24;;;;;;;7.97;2.27;;;5.80;1.00;;;;;;5033532;28;20248;-83
2021/03/14 00:58:50;;;;;;;6.07;1.97;;;5.80;1.00;;;;;;5033256;28;20265;-77
2021/03/14 01:01:16;;;;;;;7.47;2.27;;;5.70;1.00;;;;;;5033140;28;20331;-80
2021/03/14 01:03:41;;;;;;;4.73;1.83;;;5.70;1.00;;;;;;5033077;28;20212;-78
2021/03/14 01:06:07;;;;;;;7.63;2.23;;;5.80;1.00;;;;;;5033229;28;20182;-83
2021/03/14 01:08:33;;;;;;;8.97;2.60;;;5.80;1.00;;;;;;5033108;28;20637;-76
2021/03/14 01:10:59;;;;;;;7.70;2.23;;;5.80;1.00;;;;;;5032865;28;20668;-77
2021/03/14 01:13:25;;;;;;;5.07;2.10;;;5.80;1.00;;;;;;5032817;28;20287;-77
2021/03/14 01:15:50;;;;;;;11.07;3.13;;;5.80;1.00;;;;;;5032700;28;20185;-77
2021/03/14 01:18:17;;;;;;;7.93;2.77;;;5.70;1.00;;;;;;5032870;28;20174;-77
2021/03/14 01:20:42;;;;;;;7.60;2.70;;;5.60;1.00;;;;;;5032815;28;20217;-76
2021/03/14 01:23:08;;;;;;;4.93;2.07;;;5.70;1.00;;;;;;5032742;28;20255;-76
2021/03/14 01:25:34;;;;;;;8.13;2.40;;;5.80;1.00;;;;;;5032688;28;20308;-77
2021/03/14 01:27:59;;;;;;;7.97;2.93;;;5.70;1.00;;;;;;5032594;28;20269;-77
2021/03/14 01:30:25;;;;;;;5.73;1.93;;;5.70;1.00;;;;;;5032451;28;20177;-77
2021/03/14 01:32:51;;;;;;;9.17;2.13;;;5.70;1.00;;;;;;5032652;28;20169;-81
2021/03/14 01:35:18;;;;;;;7.13;2.80;;;5.60;1.00;;;;;;5032740;28;20182;-78
2021/03/14 01:37:44;;;;;;;4.57;2.40;;;5.40;1.00;;;;;;5032520;28;20174;-79
2021/03/14 01:40:11;;;;;;;5.27;2.10;;;5.40;1.00;;;;;;5032492;28;20552;-80
2021/03/14 01:42:37;;;;;;;7.13;2.37;;;5.40;1.00;;;;;;5032363;28;20173;-77
2021/03/14 01:45:06;;;;;;;6.80;2.10;;;5.40;1.00;;;;;;5032444;28;20200;-77
2021/03/14 01:47:37;;;;;;;7.77;2.30;;;5.40;4.70;;;;;;5032522;28;20272;-76
2021/03/14 01:50:08;;;;;;;6.23;2.20;;;5.30;7.80;;;;;;5032064;28;20189;-78
2021/03/14 01:52:34;;;;;;;7.30;2.27;;;5.30;9.30;;;;;;5032458;28;20173;-77
2021/03/14 01:55:01;;;;;;;6.13;2.23;;;5.30;5.90;;;;;;5032393;28;20209;-76
2021/03/14 01:57:27;;;;;;;5.93;2.30;;;5.50;10.80;;;;;;5032304;28;20192;-76
2021/03/14 01:59:53;;;;;;;7.03;2.17;;;5.40;7.30;;;;;;5032030;28;20184;-76
2021/03/14 02:02:19;;;;;;;7.07;2.53;;;5.50;1.00;;;;;;5032305;28;20169;-76
2021/03/14 02:04:44;;;;;;;8.23;2.27;;;5.50;1.00;;;;;;5032110;28;20180;-76
2021/03/14 02:07:10;;;;;;;7.40;2.67;;;5.40;1.50;;;;;;5033368;28;20244;-78
2021/03/14 02:09:37;;;;;;;5.60;2.27;;;5.30;6.90;;;;;;5032115;28;20190;-77
2021/03/14 02:12:05;;;;;;;7.90;2.70;;;5.30;6.70;;;;;;5032303;28;20257;-77
2021/03/14 02:14:32;;;;;;;10.40;2.57;;;5.20;11.40;;;;;;5030571;28;20586;-78
2021/03/14 02:16:59;;;;;;;8.87;3.43;;;5.20;13.30;;;;;;5032095;28;20252;-77
2021/03/14 02:19:30;;;;;;;5.57;2.50;;;5.20;13.90;;;;;;5032066;28;20219;-78
2021/03/14 02:22:01;;;;;;;8.90;3.13;;;5.10;17.20;;;;;;5031933;28;20170;-77
2021/03/14 02:24:32;;;;;;;5.50;2.23;;;5.20;16.70;;;;;;5032048;28;20174;-78
2021/03/14 02:27:06;;;;;;;7.37;2.87;;;5.40;9.10;;;;;;5031747;28;20173;-76
2021/03/14 02:29:35;;;;;;;7.30;2.67;;;5.30;10.20;;;;;;5032077;28;20177;-76
2021/03/14 02:32:04;;;;;;;8.13;2.93;;;5.30;11.10;;;;;;5032182;28;20270;-77
2021/03/14 02:34:36;;;;;;;8.30;2.60;;;5.20;12.20;;;;;;5031963;28;20220;-79
2021/03/14 02:37:05;;;;;;;6.90;2.87;;;5.30;15.00;;;;;;5032102;28;20158;-76
2021/03/14 02:39:32;;;;;;;11.67;3.27;;;5.20;17.00;;;;;;5031711;28;20208;-77
2021/03/14 02:41:59;;;;;;;4.97;2.60;;;5.20;13.70;;;;;;5031532;28;20256;-78
2021/03/14 02:44:37;;;;;;;8.63;2.57;;;5.10;19.90;;;;;;5031761;28;20165;-76
2021/03/14 02:47:04;;;;;;;7.53;2.80;;;5.00;24.30;;;;;;5031569;28;20178;-77
2021/03/14 02:49:31;;;;;;;7.67;3.13;;;4.90;27.90;;;;;;5031751;28;20651;-78
2021/03/14 02:51:57;;;;;;;11.53;3.10;;;4.80;30.00;;;;;;5031780;28;20197;-77
2021/03/14 02:54:24;;;;;;;7.70;2.83;;;4.90;32.40;;;;;;5031713;28;20213;-77
2021/03/14 02:56:51;;;;;;;11.87;3.27;;;4.90;30.70;;;;;;5031539;28;20178;-76
2021/03/14 02:59:22;;;;;;;7.87;2.83;;;4.90;28.60;;;;;;5031780;28;20528;-77
2021/03/14 03:01:50;;;;;;;11.87;3.10;;;5.00;28.00;;;;;;5031636;28;20177;-76
2021/03/14 03:04:22;;;;;;;10.03;2.70;;;5.00;26.70;;;;;;5035658;28;20256;-78
2021/03/14 03:06:49;;;;;;;10.43;3.30;;;4.90;25.70;;;;;;5035524;28;20166;-81
2021/03/14 03:09:16;;;;;;;12.43;2.87;;;4.90;27.40;;;;;;5035424;28;20260;-76
2021/03/14 03:11:44;;;;;;;7.93;2.90;;;4.90;28.50;;;;;;5034749;28;20177;-77
2021/03/14 03:14:15;;;;;;;9.83;3.20;;;4.90;28.60;;;;;;5035274;28;20611;-76
2021/03/14 03:16:45;;;;;;;10.07;2.87;;;4.80;28.50;;;;;;5033761;28;20174;-76
2021/03/14 03:19:14;;;;;;;7.73;2.60;;;4.80;31.30;;;;;;5035211;28;20245;-77
2021/03/14 03:21:41;;;;;;;10.47;2.40;;;4.90;28.20;;;;;;5035156;28;20181;-78
2021/03/14 03:24:09;;;;;;;9.90;2.87;;;4.90;30.30;;;;;;5035268;28;20170;-78
2021/03/14 03:26:38;;;;;;;10.00;3.30;;;4.90;28.10;;;;;;5033481;28;20181;-76
2021/03/14 03:29:03;;;;;;;8.67;3.07;;;4.80;31.50;;;;;;5035109;28;20184;-77
2021/03/14 03:31:29;;;;;;;8.53;2.70;;;4.90;30.50;;;;;;5035128;28;20169;-77
2021/03/14 03:33:55;;;;;;;7.93;2.60;;;4.70;33.20;;;;;;5035046;28;20669;-78
2021/03/14 03:36:20;;;;;;;9.90;3.40;;;4.80;35.50;;;;;;5035001;28;20678;-76
2021/03/14 03:38:46;;;;;;;7.43;2.90;;;4.80;33.40;;;;;;5034843;28;20634;-76
2021/03/14 03:41:14;;;;;;;9.27;2.60;;;4.80;35.70;;;;;;5034434;28;20188;-77
2021/03/14 03:43:42;;;;;;;10.67;3.77;;;4.90;34.30;;;;;;5034838;28;20669;-77
2021/03/14 03:46:13;;;;;;;10.03;2.80;;;4.80;32.70;;;;;;5034936;28;20185;-76
2021/03/14 03:48:46;;;;;;;9.83;2.67;;;4.80;33.50;;;;;;5035084;28;20185;-77
2021/03/14 03:51:16;;;;;;;8.87;3.20;;;4.90;31.00;;;;;;5035185;28;20185;-76
2021/03/14 03:53:42;;;;;;;8.07;2.90;;;4.80;30.40;;;;;;5033523;28;20213;-76
2021/03/14 03:56:10;;;;;;;12.80;2.67;;;4.80;32.20;;;;;;5034401;28;20169;-78
2021/03/14 03:58:36;;;;;;;10.60;3.10;;;4.80;32.90;;;;;;5034707;28;20265;-76
2021/03/14 04:01:03;;;;;;;7.27;2.90;;;4.80;35.70;;;;;;5034480;28;20594;-78
2021/03/14 04:03:34;;;;;;;9.13;2.90;;;4.80;37.70;;;;;;5034611;28;20634;-79
2021/03/14 04:06:00;;;;;;;11.70;2.80;;;4.90;37.10;;;;;;5034330;28;20165;-77
2021/03/14 04:08:26;;;;;;;9.97;3.10;;;4.90;34.40;;;;;;5034217;28;20216;-77
2021/03/14 04:10:53;;;;;;;8.37;3.00;;;4.90;35.10;;;;;;5034136;28;20169;-77
2021/03/14 04:13:20;;;;;;;9.63;2.80;;;4.90;34.80;;;;;;5032597;28;20235;-77
2021/03/14 04:15:46;;;;;;;13.73;3.57;;;5.00;34.00;;;;;;5034200;28;20170;-78
2021/03/14 04:18:12;;;;;;;6.80;3.33;;;4.90;33.30;;;;;;5032987;28;20536;-76
2021/03/14 04:20:40;;;;;;;13.33;3.27;;;5.00;34.60;;;;;;5034001;28;20176;-77
2021/03/14 04:23:15;;;;;;;10.47;3.03;;;5.10;28.70;;;;;;5033871;28;20219;-77
2021/03/14 04:25:43;;;;;;;10.67;2.50;;;5.20;27.30;;;;;;5034048;28;20173;-77
2021/03/14 04:28:10;;;;;;;10.13;3.37;;;5.10;28.20;;;;;;5033898;28;20181;-76
2021/03/14 04:30:36;;;;;;;9.23;2.87;;;5.10;29.10;;;;;;5034020;28;20180;-76
2021/03/14 04:33:04;;;;;;;12.60;3.20;;;5.10;29.90;;;;;;5033542;28;20173;-77
2021/03/14 04:35:30;;;;;;;9.87;3.03;;;5.10;33.30;;;;;;5034077;28;20176;-77
2021/03/14 04:37:57;;;;;;;10.57;3.20;;;5.10;32.10;;;;;;5033347;28;20240;-77
2021/03/14 04:40:23;;;;;;;9.50;3.20;;;5.10;34.20;;;;;;5033770;28;20186;-77
2021/03/14 04:42:52;;;;;;;14.23;4.47;;;5.10;35.70;;;;;;5032411;28;20661;-77
2021/03/14 04:45:18;;;;;;;9.20;3.10;;;5.00;37.20;;;;;;5033732;28;20267;-77
2021/03/14 04:47:45;;;;;;;10.73;3.27;;;5.10;40.00;;;;;;5033548;28;20189;-77
2021/03/14 04:50:14;;;;;;;9.00;2.73;;;5.20;38.20;;;;;;5033369;28;20185;-77
2021/03/14 04:52:44;;;;;;;7.23;2.80;;;5.30;34.10;;;;;;5033300;28;20189;-77
2021/03/14 04:55:10;;;;;;;10.03;2.93;;;5.20;33.30;;;;;;5033555;28;20244;-78
2021/03/14 04:57:38;;;;;;;10.17;3.03;;;5.20;37.10;;;;;;5033389;28;20173;-77
2021/03/14 05:00:08;;;;;;;11.00;3.00;;;5.20;42.00;;;;;;5033252;28;20177;-76
2021/03/14 05:02:35;;;;;;;11.50;2.70;;;5.20;46.40;;;;;;5032026;28;20170;-80
2021/03/14 05:05:03;;;;;;;9.83;3.03;;;5.30;43.50;;;;;;5033248;28;20169;-77
2021/03/14 05:07:29;;;;;;;11.10;3.53;;;5.40;44.30;;;;;;5031346;28;20652;-79
2021/03/14 05:09:58;;;;;;;11.20;2.70;;;5.40;47.00;;;;;;5032629;28;20166;-77
2021/03/14 05:12:24;;;;;;;12.17;2.90;;;5.30;49.30;;;;;;5033152;28;20189;-77
2021/03/14 05:14:50;;;;;;;10.77;3.13;;;5.40;51.10;;;;;;5033005;28;20205;-77
2021/03/14 05:17:17;;;;;;;8.60;3.07;;;5.40;52.30;;;;;;5032768;28;20174;-77
2021/03/14 05:19:44;;;;;;;9.50;3.13;;;5.40;52.80;;;;;;5033013;28;20548;-78
2021/03/14 05:22:11;;;;;;;9.87;4.43;;;5.30;55.20;;;;;;5031485;28;20208;-77
2021/03/14 05:24:39;;;;;;;9.30;4.20;;;5.20;58.70;;;;;;5032122;28;20181;-76
2021/03/14 05:27:07;;;;;;;11.10;4.03;;;5.20;61.80;;;;;;5032340;28;20229;-77
2021/03/14 05:29:33;;;;;;;11.00;3.40;;;5.30;65.30;;;;;;5032455;28;20345;-76
2021/03/14 05:31:59;;;;;;;11.60;3.73;;;5.30;65.40;;;;;;5032809;28;20166;-76
2021/03/14 05:34:25;;;;;;;11.03;3.70;;;5.30;68.10;;;;;;5032669;28;20212;-77
2021/03/14 05:36:51;;;;;;;13.07;4.10;;;5.20;73.70;;;;;;5032947;28;20253;-80
2021/03/14 05:39:17;;;;;;;8.27;3.70;;;5.20;71.00;;;;;;5032421;28;20308;-79
2021/03/14 05:41:43;;;;;;;10.13;4.00;;;5.20;68.30;;;;;;5032543;28;20187;-80
2021/03/14 05:44:10;;;;;;;9.37;3.70;;;5.10;69.60;;;;;;5031201;28;20271;-80
2021/03/14 05:46:36;;;;;;;9.47;4.10;;;5.10;70.50;;;;;;5032427;28;20692;-76
2021/03/14 05:49:06;;;;;;;9.03;3.83;;;5.10;71.10;;;;;;5031901;28;20189;-77
2021/03/14 05:51:40;;;;;;;8.10;3.67;;;5.10;76.10;;;;;;5032060;28;20208;-79
2021/03/14 05:54:11;;;;;;;12.93;4.27;;;5.10;78.10;;;;;;5030891;28;20288;-76
2021/03/14 05:56:41;;;;;;;9.67;3.60;;;5.20;78.90;;;;;;5032514;28;20232;-77
2021/03/14 05:59:09;;;;;;;8.23;3.40;;;5.20;79.30;;;;;;5030758;28;20173;-77
2021/03/14 06:01:36;;;;;;;7.97;3.23;;;4.90;81.50;;;;;;5032201;28;20170;-78
2021/03/14 06:04:02;;;;;;;7.17;3.33;;;4.90;85.00;;;;;;5031977;28;20177;-76
2021/03/14 06:06:28;;;;;;;11.47;3.57;;;4.80;89.90;;;;;;5031917;28;20720;-77
2021/03/14 06:08:55;;;;;;;9.03;4.10;;;4.90;91.70;;;;;;5032018;28;20169;-76
2021/03/14 06:11:20;;;;;;;9.70;4.33;;;4.90;93.00;;;;;;5031788;28;20174;-81
2021/03/14 06:13:46;;;;;;;10.33;3.77;;;5.00;94.30;;;;;;5031703;28;20642;-77
2021/03/14 06:16:12;;;;;;;13.27;3.93;;;5.00;94.70;;;;;;5031921;28;20169;-77
2021/03/14 06:18:38;;;;;;;12.23;4.00;;;5.00;95.20;;;;;;5030593;28;20170;-78
2021/03/14 06:21:17;;;;;;;12.83;4.30;;;4.90;96.40;;;;;;5031661;28;20208;-78
2021/03/14 06:23:54;;;;;;;12.40;3.83;;;5.00;98.50;;;;;;5031846;28;20580;-79
2021/03/14 06:26:19;;;;;;;8.77;3.37;;;5.00;99.60;;;;;;5031916;28;20165;-78
2021/03/14 06:28:45;;;;;;;12.60;4.00;;;5.20;99.50;;;;;;5031883;28;20177;-77
2021/03/14 06:31:19;;;;;;;10.80;4.77;;;5.10;99.20;;;;;;5030597;28;20212;-77
2021/03/14 06:33:45;;;;;;;8.60;4.00;;;5.20;99.20;;;;;;5031432;28;20312;-77
2021/03/14 06:36:16;;;;;;;10.27;4.23;;;5.30;99.80;;;;;;5033610;28;20173;-79
2021/03/14 06:38:42;;;;;;;11.93;4.47;;;5.20;99.80;;;;;;5035866;28;20182;-83
2021/03/14 06:41:10;;;;;;;10.57;4.47;;;5.30;99.90;;;;;;5035565;28;20586;-78
2021/03/14 06:43:41;;;;;;;8.93;4.13;;;5.40;99.90;;;;;;5035825;28;20182;-77
2021/03/14 06:46:26;;;;;;;10.83;4.10;;;5.50;99.90;;;;;;5035369;28;20177;-78
2021/03/14 06:49:13;;;;;;;9.43;3.93;;;5.50;99.90;;;;;;5035460;28;20185;-78
2021/03/14 06:51:43;;;;;;;7.80;3.80;;;5.50;99.90;;;;;;5035685;28;20189;-78
2021/03/14 06:54:26;;;;;;;10.97;3.93;;;5.50;99.90;;;;;;5035570;28;20224;-77
2021/03/14 06:57:14;;;;;;;8.30;4.07;;;5.40;99.90;;;;;;5035421;28;20193;-76
2021/03/14 06:59:46;;;;;;;9.67;4.20;;;5.40;99.90;;;;;;5035494;28;20176;-81
2021/03/14 07:02:17;;;;;;;12.13;3.97;;;5.60;99.90;;;;;;5035433;28;20166;-80
2021/03/14 07:04:45;;;;;;;9.97;4.70;;;5.60;99.90;;;;;;5032704;28;20177;-76
2021/03/14 07:07:20;;;;;;;10.23;4.13;;;5.80;99.90;;;;;;5034949;28;20188;-78
2021/03/14 07:09:47;;;;;;;12.57;4.50;;;5.80;99.80;;;;;;5035162;28;20196;-78
2021/03/14 07:12:28;;;;;;;12.97;4.33;;;5.90;99.70;;;;;;5035223;28;20239;-82
2021/03/14 07:14:54;;;;;;;12.40;5.10;;;5.80;99.90;;;;;;5035173;28;20209;-77
2021/03/14 07:17:26;;;;;;;11.17;4.57;;;5.90;99.80;;;;;;5034979;28;20158;-81
2021/03/14 07:19:57;;;;;;;11.17;4.37;;;6.00;99.60;;;;;;5033789;28;20170;-78
2021/03/14 07:22:23;;;;;;;9.77;4.20;;;6.00;99.60;;;;;;5035147;28;20170;-84
2021/03/14 07:24:48;;;;;;;7.60;3.90;;;6.10;99.80;;;;;;5035238;28;20196;-78
2021/03/14 07:27:21;;;;;;;8.27;4.57;;;6.00;99.60;;;;;;5034896;28;20200;-81
2021/03/14 07:29:49;;;;;;;9.67;4.07;;;6.00;99.90;;;;;;5034926;28;20172;-82
2021/03/14 07:32:15;;;;;;;8.53;4.67;;;6.10;99.90;;;;;;5034458;28;20711;-79
2021/03/14 07:34:41;;;;;;;5.97;4.00;;;6.10;99.90;;;;;;5034416;28;20213;-77
2021/03/14 07:37:06;;;;;;;5.20;3.90;;;6.10;99.90;;;;;;5034390;28;20285;-79
2021/03/14 07:39:32;;;;;;;9.23;4.20;;;6.00;99.90;;;;;;5034603;28;20177;-78
2021/03/14 07:42:00;;;;;;;9.23;4.30;;;6.00;99.90;;;;;;5034366;28;20178;-78
2021/03/14 07:44:26;;;;;;;6.80;4.20;;;6.10;99.90;;;;;;5033138;28;20264;-79
2021/03/14 07:46:53;;;;;;;6.83;4.47;;;6.20;99.90;;;;;;5033311;28;20170;-79
2021/03/14 07:49:27;;;;;;;7.77;4.07;;;6.20;99.90;;;;;;5034027;28;20181;-78
2021/03/14 07:52:06;;;;;;;7.40;4.60;;;6.20;99.90;;;;;;5034315;28;20181;-77
2021/03/14 07:54:39;;;;;;;5.87;4.47;;;6.30;99.90;;;;;;5034141;28;20686;-80
2021/03/14 07:57:05;;;;;;;7.50;4.80;;;6.40;99.90;;;;;;5034258;28;20198;-79
2021/03/14 07:59:33;;;;;;;7.63;5.30;;;6.40;99.90;;;;;;5032958;28;20186;-77
2021/03/14 08:02:17;;;;;;;7.20;5.10;;;6.50;99.90;;;;;;5032368;28;20262;-78
2021/03/14 08:04:50;;;;;;;6.43;4.97;;;6.60;99.90;;;;;;5032522;28;20264;-77
2021/03/14 08:07:37;;;;;;;6.90;5.00;;;6.60;99.90;;;;;;5033803;28;20184;-77
2021/03/14 08:10:07;;;;;;;8.73;5.00;;;6.50;99.90;;;;;;5032308;28;20629;-77
2021/03/14 08:12:37;;;;;;;6.60;4.40;;;6.60;99.90;;;;;;5033508;28;20193;-78
2021/03/14 08:15:22;;;;;;;5.77;4.10;;;6.70;99.90;;;;;;5033534;28;20245;-80
2021/03/14 08:17:48;;;;;;;7.60;4.63;;;6.70;99.90;;;;;;5033762;28;20276;-77
2021/03/14 08:20:14;;;;;;;7.03;4.30;;;6.80;99.80;;;;;;5034096;28;20174;-80
2021/03/14 08:22:43;;;;;;;7.50;4.53;;;6.90;99.70;;;;;;5033714;28;20170;-79
2021/03/14 08:25:19;;;;;;;9.50;5.00;;;7.00;99.20;;;;;;5032548;28;20556;-77
2021/03/14 08:27:46;;;;;;;5.83;4.00;;;7.10;98.90;;;;;;5033621;28;20169;-77
2021/03/14 08:30:34;;;;;;;10.23;4.87;;;7.20;98.20;;;;;;5033500;28;20224;-81
2021/03/14 08:33:21;;;;;;;6.60;4.20;;;7.20;97.90;;;;;;5031947;28;20532;-78
2021/03/14 08:36:01;;;;;;;7.30;4.50;;;7.20;97.80;;;;;;5033301;28;20178;-77
2021/03/14 08:38:34;;;;;;;8.47;4.43;;;7.20;98.30;;;;;;5033363;28;20506;-80
2021/03/14 08:41:18;;;;;;;8.73;3.63;;;7.30;97.90;;;;;;5033635;28;20178;-77
2021/03/14 08:43:46;;;;;;;6.03;3.80;;;7.30;97.70;;;;;;5033299;28;20645;-77
2021/03/14 08:46:12;;;;;;;6.53;3.90;;;7.30;97.80;;;;;;5033509;28;20174;-79
2021/03/14 08:48:38;;;;;;;9.27;3.97;;;7.30;97.60;;;;;;5033231;28;20660;-78
2021/03/14 08:51:09;;;;;;;6.77;4.00;;;7.40;97.10;;;;;;5033457;28;20189;-83
2021/03/14 08:53:36;;;;;;;7.50;3.57;;;7.30;97.10;;;;;;5032819;28;20197;-76
2021/03/14 08:56:04;;;;;;;11.37;3.97;;;7.40;97.30;;;;;;5033132;28;20189;-79
2021/03/14 08:58:30;;;;;;;6.47;3.03;;;7.50;97.00;;;;;;5032605;28;20634;-78
2021/03/14 09:01:08;;;;;;;8.03;3.63;;;7.40;96.90;;;;;;5031765;28;20196;-80
2021/03/14 09:03:41;;;;;;;7.13;3.33;;;7.40;96.90;;;;;;5031637;28;20188;-77
2021/03/14 09:06:26;;;;;;;5.80;3.40;;;7.40;96.80;;;;;;5031734;28;20181;-78
2021/03/14 09:09:08;;;;;;;7.63;3.23;;;7.50;96.70;;;;;;5032253;28;20188;-81
2021/03/14 09:11:43;;;;;;;8.20;4.10;;;7.40;96.90;;;;;;5032482;28;20257;-77
2021/03/14 09:14:27;;;;;;;8.33;4.40;;;7.50;96.50;;;;;;5030636;28;20248;-77
2021/03/14 09:16:57;;;;;;;11.83;5.17;;;7.50;96.40;;;;;;5032487;28;20550;-80
2021/03/14 09:19:28;;;;;;;10.23;4.20;;;7.50;96.30;;;;;;5032471;28;20181;-77
2021/03/14 09:21:59;;;;;;;9.40;3.50;;;7.60;96.30;;;;;;5032383;28;20174;-77
2021/03/14 09:24:29;;;;;;;9.40;3.30;;;7.60;95.90;;;;;;5031422;28;20170;-81
2021/03/14 09:26:56;;;;;;;8.50;3.67;;;7.60;95.50;;;;;;5032287;28;20245;-78
2021/03/14 09:29:42;;;;;;;7.10;3.03;;;7.70;95.80;;;;;;5030435;28;20268;-83
2021/03/14 09:32:19;;;;;;;6.23;3.00;;;7.70;94.70;;;;;;5029822;28;20275;-82
2021/03/14 09:34:47;;;;;;;7.50;3.17;;;7.80;93.60;;;;;;5035417;28;20201;-79
2021/03/14 09:37:26;;;;;;;6.97;2.73;;;7.90;93.70;;;;;;5032009;28;20503;-82
2021/03/14 09:40:15;;;;;;;6.17;2.33;;;7.90;91.20;;;;;;5029014;28;20173;-77
2021/03/14 09:42:50;;;;;;;5.13;2.57;;;8.00;91.40;;;;;;5002074;28;20193;-79
2021/03/14 09:45:22;;;;;;;7.53;2.60;;;8.10;88.70;;;;;;5032115;28;20854;-82
2021/03/14 09:48:16;;;;;;;7.20;2.70;;;8.00;88.60;;;;;;5031995;28;20218;-77
2021/03/14 09:50:46;;;;;;;7.90;2.53;;;8.10;90.10;;;;;;5030696;28;20604;-78
2021/03/14 09:53:13;;;;;;;4.67;2.63;;;8.10;88.40;;;;;;5025656;28;20631;-77
2021/03/14 09:55:59;;;;;;;4.43;2.23;;;8.00;86.70;;;;;;5031756;28;20185;-81
2021/03/14 09:58:26;;;;;;;5.47;2.80;;;8.00;87.40;;;;;;5031047;28;20180;-76
2021/03/14 10:00:53;;;;;;;5.83;2.40;;;8.00;87.50;;;;;;5031896;28;20189;-78
2021/03/14 10:03:24;;;;;;;10.73;2.87;;;8.10;86.90;;;;;;5031633;28;20185;-77
2021/03/14 10:05:57;;;;;;;5.43;2.63;;;8.10;86.60;;;;;;5030272;28;20181;-79
2021/03/14 10:08:31;;;;;;;4.63;2.20;;;8.10;86.60;;;;;;5031726;28;20598;-79
2021/03/14 10:11:00;;;;;;;5.57;2.70;;;8.20;84.90;;;;;;5031373;28;20171;-82
2021/03/14 10:13:27;;;;;;;6.87;3.23;;;8.20;87.10;;;;;;5031919;28;20186;-78
2021/03/14 10:15:55;;;;;;;6.93;2.90;;;8.20;87.10;;;;;;5031424;28;20200;-80
2021/03/14 10:18:22;;;;;;;6.57;3.23;;;8.30;87.20;;;;;;5031512;28;20170;-81
2021/03/14 10:20:49;;;;;;;7.73;2.97;;;8.40;87.10;;;;;;5031417;28;20196;-81
2021/03/14 10:23:20;;;;;;;6.63;2.70;;;8.50;80.40;;;;;;5031411;28;20212;-80
2021/03/14 10:25:45;;;;;;;6.77;2.83;;;8.50;82.50;;;;;;5030988;28;20188;-79
2021/03/14 10:28:15;;;;;;;8.83;3.13;;;8.70;79.20;;;;;;5031413;28;20181;-77
2021/03/14 10:30:42;;;;;;;7.17;2.90;;;8.90;77.20;;;;;;5031439;28;20252;-77
2021/03/14 10:33:13;;;;;;;6.63;3.00;;;9.00;74.00;;;;;;5031627;28;20501;-75
2021/03/14 10:35:41;;;;;;;5.70;3.00;;;9.10;68.10;;;;;;5030965;28;20178;-80
2021/03/14 10:38:18;;;;;;;6.33;2.47;;;9.30;68.20;;;;;;5034967;28;20187;-83
2021/03/14 10:40:44;;;;;;;7.83;2.70;;;9.40;59.30;;;;;;5031264;28;20176;-78
2021/03/14 10:43:25;;;;;;;5.20;2.30;;;9.30;61.40;;;;;;5031757;28;20169;-81
2021/03/14 10:45:53;;;;;;;7.17;2.63;;;9.30;68.70;;;;;;5031553;28;20195;-78
2021/03/14 10:48:29;;;;;;;6.17;2.17;;;9.10;72.60;;;;;;5031486;28;20196;-78
2021/03/14 10:51:03;;;;;;;8.30;2.63;;;8.60;74.20;;;;;;5031457;28;20649;-80
2021/03/14 10:53:29;;;;;;;6.53;2.27;;;8.40;84.50;;;;;;5028811;28;20256;-82
2021/03/14 10:56:06;;;;;;;6.43;2.60;;;8.20;89.10;;;;;;5031063;28;20178;-79
2021/03/14 10:58:40;;;;;;;5.37;2.70;;;8.20;90.00;;;;;;5031423;28;20176;-82
2021/03/14 11:01:08;;;;;;;6.33;2.90;;;8.30;90.00;;;;;;5031792;28;20166;-78
2021/03/14 11:03:38;;;;;;;5.87;2.77;;;8.30;89.20;;;;;;5031895;28;20201;-82
2021/03/14 11:06:21;;;;;;;7.53;2.70;;;8.50;89.10;;;;;;5031416;28;20173;-79
2021/03/14 11:08:54;;;;;;;9.93;4.10;;;8.60;85.10;;;;;;5030909;28;20227;-82
2021/03/14 11:11:23;;;;;;;6.13;2.63;;;8.70;86.80;;;;;;5031276;28;20178;-82
2021/03/14 11:13:50;;;;;;;7.37;3.27;;;8.80;84.60;;;;;;5030920;28;20255;-82
2021/03/14 11:16:16;;;;;;;10.43;3.77;;;8.80;80.30;;;;;;5031260;28;20584;-83
2021/03/14 11:18:42;;;;;;;9.73;3.30;;;8.90;82.60;;;;;;5031362;28;20169;-82
2021/03/14 11:21:09;;;;;;;7.83;3.03;;;9.00;80.30;;;;;;5032486;28;20178;-85
2021/03/14 11:23:34;;;;;;;6.87;3.23;;;9.20;78.00;;;;;;5033949;28;20780;-85
2021/03/14 11:26:00;;;;;;;9.53;3.23;;;9.20;77.60;;;;;;5036078;28;20204;-86
2021/03/14 11:28:26;;;;;;;8.20;3.20;;;9.40;80.30;;;;;;5035630;28;20642;-82
2021/03/14 11:30:52;;;;;;;6.80;2.70;;;9.50;78.70;;;;;;5035487;28;20512;-87
2021/03/14 11:33:18;;;;;;;4.53;2.33;;;9.70;70.50;;;;;;5034586;28;20182;-87
2021/03/14 11:35:44;;;;;;;10.27;3.03;;;9.60;63.50;;;;;;5039799;28;20169;-82
2021/03/14 11:38:10;;;;;;;9.00;3.80;;;9.60;64.50;;;;;;5037624;28;20176;-85
2021/03/14 11:40:37;;;;;;;5.53;2.90;;;9.70;60.10;;;;;;5034326;28;20173;-83
2021/03/14 11:43:03;;;;;;;9.40;3.07;;;9.80;61.90;;;;;;5035127;28;20178;-83
2021/03/14 11:45:29;;;;;;;8.10;3.20;;;9.70;53.50;;;;;;5034399;28;20653;-79
2021/03/14 11:47:54;;;;;;;10.17;3.50;;;9.80;57.50;;;;;;5034369;28;20205;-82
2021/03/14 11:50:20;;;;;;;9.07;2.73;;;10.00;56.80;;;;;;5032898;28;20192;-82
2021/03/14 11:52:49;;;;;;;7.47;3.13;;;10.10;47.00;;;;;;5033821;28;20177;-82
2021/03/14 11:55:16;;;;;;;8.50;2.73;;;10.00;41.80;;;;;;5034351;28;20220;-78
2021/03/14 11:57:42;;;;;;;8.80;3.20;;;9.80;40.10;;;;;;5032500;28;20228;-78
2021/03/14 12:00:09;;;;;;;6.40;2.93;;;9.70;41.40;;;;;;5033938;28;20173;-79
2021/03/14 12:02:36;;;;;;;7.03;2.40;;;9.80;44.60;;;;;;5033459;28;20173;-83
2021/03/14 12:05:02;;;;;;;6.70;3.00;;;9.70;45.80;;;;;;5034519;28;20227;-84
2021/03/14 12:07:28;;;;;;;6.93;2.70;;;9.60;49.30;;;;;;5034142;28;20165;-85
2021/03/14 12:09:54;;;;;;;12.90;3.60;;;9.50;48.30;;;;;;5034165;28;20165;-81
2021/03/14 12:12:20;;;;;;;11.63;3.10;;;9.60;53.80;;;;;;5034036;28;20632;-80
2021/03/14 12:14:47;;;;;;;11.90;2.97;;;9.90;50.90;;;;;;5035152;28;20221;-78
2021/03/14 12:17:12;;;;;;;10.03;3.37;;;9.90;47.20;;;;;;5036889;28;20200;-82
2021/03/14 12:19:38;;;;;;;9.43;3.10;;;9.90;42.90;;;;;;5034143;28;20629;-86
2021/03/14 12:22:04;;;;;;;7.93;3.03;;;9.80;35.30;;;;;;5031089;28;20193;-78
2021/03/14 12:24:30;;;;;;;10.30;2.97;;;9.80;37.60;;;;;;5031146;28;20695;-81
2021/03/14 12:26:55;;;;;;;13.77;4.23;;;9.90;39.80;;;;;;5033828;28;20176;-77
2021/03/14 12:29:21;;;;;;;9.23;3.20;;;10.00;33.90;;;;;;5033853;28;20209;-84
2021/03/14 12:31:48;;;;;;;7.37;1.93;;;10.10;26.90;;;;;;5032036;28;20244;-81
2021/03/14 12:34:13;;;;;;;8.40;2.17;;;10.10;1.00;;;;;;5033166;28;20212;-81
2021/03/14 12:36:39;;;;;;;7.63;2.10;;;10.10;1.00;;;;;;5032273;28;20177;-84
2021/03/14 12:39:05;;;;;;;7.80;2.00;;;10.10;1.00;;;;;;5033853;28;20169;-83
2021/03/14 12:41:30;;;;;;;7.20;1.93;;;10.10;1.00;;;;;;5033480;28;20205;-79
2021/03/14 12:43:56;;;;;;;7.43;2.10;;;10.20;1.00;;;;;;5033092;28;20169;-82
2021/03/14 12:46:22;;;;;;;6.90;2.57;;;10.30;1.00;;;;;;5033608;28;20174;-77
2021/03/14 12:48:48;;;;;;;11.07;2.07;;;10.20;1.00;;;;;;5028308;28;20197;-80
2021/03/14 12:51:13;;;;;;;6.53;2.00;;;10.00;1.00;;;;;;5032811;28;20203;-80
2021/03/14 12:53:40;;;;;;;9.53;2.27;;;10.00;1.00;;;;;;5033083;28;20308;-84
2021/03/14 12:56:06;;;;;;;6.60;2.00;;;10.20;1.00;;;;;;5032551;28;20315;-84
2021/03/14 12:58:31;;;;;;;5.10;1.70;;;10.30;1.00;;;;;;5033063;28;20212;-80
2021/03/14 13:00:57;;;;;;;6.93;1.80;;;10.40;1.00;;;;;;5033811;28;20181;-81
2021/03/14 13:03:23;;;;;;;7.30;2.30;;;10.40;1.00;;;;;;5032225;28;20170;-82